sensor_id;sensor_type;location;lat;lon;timestamp;pressure;altitude;pressure_sealevel;temperature;humidity
49377;BME280;35253;34.688;33.040;2023-02-12T00:02:24;101635.50;;;10.83;100.00
49377;BME280;35253;34.688;33.040;2023-02-12T00:04:49;101634.00;;;10.76;100.00
49377;BME280;35253;34.688;33.040;2023-02-12T00:07:15;101642.50;;;10.65;100.00
49377;BME280;35253;34.688;33.040;2023-02-12T00:09:40;101634.31;;;10.70;100.00
49377;BME280;35253;34.688;33.040;2023-02-12T00:12:06;101638.41;;;10.77;100.00
49377;BME280;35253;34.688;33.040;2023-02-12T00:14:31;101637.84;;;10.70;100.00
49377;BME280;35253;34.688;33.040;2023-02-12T00:16:58;101633.22;;;10.54;100.00
49377;BME280;35253;34.688;33.040;2023-02-12T00:19:24;101632.63;;;10.67;100.00
49377;BME280;35253;34.688;33.040;2023-02-12T00:21:49;101630.91;;;10.46;100.00
49377;BME280;35253;34.688;33.040;2023-02-12T00:24:14;101626.88;;;10.36;100.00
49377;BME280;35253;34.688;33.040;2023-02-12T00:26:40;101627.78;;;10.57;100.00
49377;BME280;35253;34.688;33.040;2023-02-12T00:29:05;101631.13;;;10.62;100.00
49377;BME280;35253;34.688;33.040;2023-02-12T00:31:31;101631.44;;;10.74;100.00
49377;BME280;35253;34.688;33.040;2023-02-12T00:33:57;101631.75;;;10.67;100.00
49377;BME280;35253;34.688;33.040;2023-02-12T00:36:24;101627.78;;;10.57;100.00
49377;BME280;35253;34.688;33.040;2023-02-12T00:38:50;101628.03;;;10.51;100.00
49377;BME280;35253;34.688;33.040;2023-02-12T00:41:16;101623.78;;;10.47;100.00
49377;BME280;35253;34.688;33.040;2023-02-12T00:43:41;101619.03;;;10.53;100.00
49377;BME280;35253;34.688;33.040;2023-02-12T00:46:07;101609.03;;;10.58;100.00
49377;BME280;35253;34.688;33.040;2023-02-12T00:48:33;101615.38;;;10.56;100.00
49377;BME280;35253;34.688;33.040;2023-02-12T00:50:59;101612.28;;;10.45;100.00
49377;BME280;35253;34.688;33.040;2023-02-12T00:53:24;101620.44;;;10.42;100.00
49377;BME280;35253;34.688;33.040;2023-02-12T00:55:50;101622.69;;;10.51;100.00
49377;BME280;35253;34.688;33.040;2023-02-12T00:58:15;101611.09;;;10.31;100.00
49377;BME280;35253;34.688;33.040;2023-02-12T01:00:41;101610.97;;;10.34;100.00
49377;BME280;35253;34.688;33.040;2023-02-12T01:03:06;101611.38;;;10.25;100.00
49377;BME280;35253;34.688;33.040;2023-02-12T01:05:32;101612.97;;;10.29;100.00
49377;BME280;35253;34.688;33.040;2023-02-12T01:07:57;101608.03;;;10.20;100.00
49377;BME280;35253;34.688;33.040;2023-02-12T01:10:23;101602.84;;;10.17;100.00
49377;BME280;35253;34.688;33.040;2023-02-12T01:12:48;101599.84;;;10.25;100.00
49377;BME280;35253;34.688;33.040;2023-02-12T01:15:14;101601.44;;;10.29;100.00
49377;BME280;35253;34.688;33.040;2023-02-12T01:17:39;101601.63;;;10.24;100.00
49377;BME280;35253;34.688;33.040;2023-02-12T01:20:05;101603.63;;;10.19;100.00
49377;BME280;35253;34.688;33.040;2023-02-12T01:22:33;101595.91;;;10.33;100.00
49377;BME280;35253;34.688;33.040;2023-02-12T01:24:59;101599.78;;;10.26;100.00
49377;BME280;35253;34.688;33.040;2023-02-12T01:27:24;101598.97;;;10.24;100.00
49377;BME280;35253;34.688;33.040;2023-02-12T01:29:49;101594.72;;;10.20;100.00
49377;BME280;35253;34.688;33.040;2023-02-12T01:32:15;101599.22;;;10.18;100.00
49377;BME280;35253;34.688;33.040;2023-02-12T01:34:40;101597.50;;;10.17;100.00
49377;BME280;35253;34.688;33.040;2023-02-12T01:37:06;101590.47;;;10.15;100.00
49377;BME280;35253;34.688;33.040;2023-02-12T01:39:31;101599.22;;;10.18;100.00
49377;BME280;35253;34.688;33.040;2023-02-12T01:41:57;101609.59;;;10.04;100.00
49377;BME280;35253;34.688;33.040;2023-02-12T01:44:23;101599.72;;;10.06;100.00
49377;BME280;35253;34.688;33.040;2023-02-12T01:49:21;101603.78;;;9.94;100.00
49377;BME280;35253;34.688;33.040;2023-02-12T01:51:50;101608.78;;;10.02;100.00
49377;BME280;35253;34.688;33.040;2023-02-12T01:54:18;101615.84;;;10.03;100.00
49377;BME280;35253;34.688;33.040;2023-02-12T01:56:45;101612.63;;;9.95;100.00
49377;BME280;35253;34.688;33.040;2023-02-12T01:59:10;101611.63;;;9.98;100.00
49377;BME280;35253;34.688;33.040;2023-02-12T02:01:37;101609.03;;;9.96;100.00
49377;BME280;35253;34.688;33.040;2023-02-12T02:04:37;101607.50;;;9.90;100.00
49377;BME280;35253;34.688;33.040;2023-02-12T02:07:04;101606.09;;;9.82;100.00
49377;BME280;35253;34.688;33.040;2023-02-12T02:09:32;101605.31;;;9.57;100.00
49377;BME280;35253;34.688;33.040;2023-02-12T02:11:58;101602.75;;;9.77;100.00
49377;BME280;35253;34.688;33.040;2023-02-12T02:14:42;101612.91;;;9.67;100.00
49377;BME280;35253;34.688;33.040;2023-02-12T02:19:49;101608.19;;;9.74;100.00
49377;BME280;35253;34.688;33.040;2023-02-12T02:22:30;101616.84;;;9.79;100.00
49377;BME280;35253;34.688;33.040;2023-02-12T02:27:29;101613.56;;;9.94;100.00
49377;BME280;35253;34.688;33.040;2023-02-12T02:32:54;101610.16;;;9.90;100.00
49377;BME280;35253;34.688;33.040;2023-02-12T02:35:31;101618.34;;;9.86;100.00
49377;BME280;35253;34.688;33.040;2023-02-12T02:40:38;101621.69;;;9.91;100.00
49377;BME280;35253;34.688;33.040;2023-02-12T02:43:05;101613.91;;;10.07;100.00
49377;BME280;35253;34.688;33.040;2023-02-12T02:45:50;101625.25;;;10.12;100.00
49377;BME280;35253;34.688;33.040;2023-02-12T02:48:26;101617.09;;;10.16;100.00
49377;BME280;35253;34.688;33.040;2023-02-12T02:51:28;101623.28;;;10.17;100.00
49377;BME280;35253;34.688;33.040;2023-02-12T02:53:47;101608.38;;;10.11;100.00
49377;BME280;35253;34.688;33.040;2023-02-12T02:56:15;101626.38;;;10.06;100.00
49377;BME280;35253;34.688;33.040;2023-02-12T02:58:55;101631.63;;;10.08;100.00
49377;BME280;35253;34.688;33.040;2023-02-12T03:01:31;101627.75;;;10.16;100.00
49377;BME280;35253;34.688;33.040;2023-02-12T03:06:31;101630.97;;;10.03;100.00
49377;BME280;35253;34.688;33.040;2023-02-12T03:08:59;101638.41;;;10.16;100.00
49377;BME280;35253;34.688;33.040;2023-02-12T03:11:27;101635.41;;;10.24;100.00
49377;BME280;35253;34.688;33.040;2023-02-12T03:16:25;101630.09;;;10.02;100.00
49377;BME280;35253;34.688;33.040;2023-02-12T03:19:11;101635.66;;;9.96;100.00
49377;BME280;35253;34.688;33.040;2023-02-12T03:21:42;101638.66;;;9.88;100.00
49377;BME280;35253;34.688;33.040;2023-02-12T03:24:14;101640.16;;;9.95;100.00
49377;BME280;35253;34.688;33.040;2023-02-12T03:27:02;101646.03;;;10.04;100.00
49377;BME280;35253;34.688;33.040;2023-02-12T03:29:29;101645.00;;;10.06;100.00
49377;BME280;35253;34.688;33.040;2023-02-12T03:31:57;101651.03;;;10.11;100.00
49377;BME280;35253;34.688;33.040;2023-02-12T03:34:33;101652.75;;;10.12;100.00
49377;BME280;35253;34.688;33.040;2023-02-12T03:37:07;101653.16;;;10.03;100.00
49377;BME280;35253;34.688;33.040;2023-02-12T03:44:49;101658.84;;;9.94;100.00
49377;BME280;35253;34.688;33.040;2023-02-12T03:49:47;101658.47;;;10.03;100.00
49377;BME280;35253;34.688;33.040;2023-02-12T03:52:13;101659.34;;;10.04;100.00
49377;BME280;35253;34.688;33.040;2023-02-12T03:54:39;101656.72;;;10.02;100.00
49377;BME280;35253;34.688;33.040;2023-02-12T03:57:13;101654.25;;;9.98;100.00
49377;BME280;35253;34.688;33.040;2023-02-12T03:59:39;101659.41;;;10.02;100.00
49377;BME280;35253;34.688;33.040;2023-02-12T04:02:05;101671.72;;;9.83;100.00
49377;BME280;35253;34.688;33.040;2023-02-12T04:04:31;101662.44;;;9.93;100.00
49377;BME280;35253;34.688;33.040;2023-02-12T04:06:57;101669.75;;;9.88;100.00
49377;BME280;35253;34.688;33.040;2023-02-12T04:09:23;101669.88;;;9.85;100.00
49377;BME280;35253;34.688;33.040;2023-02-12T04:15:15;101668.06;;;9.64;100.00
49377;BME280;35253;34.688;33.040;2023-02-12T04:20:30;101674.09;;;9.69;100.00
49377;BME280;35253;34.688;33.040;2023-02-12T04:25:34;101671.59;;;9.64;100.00
49377;BME280;35253;34.688;33.040;2023-02-12T04:30:56;101679.47;;;9.44;100.00
49377;BME280;35253;34.688;33.040;2023-02-12T04:33:24;101669.53;;;9.49;100.00
49377;BME280;35253;34.688;33.040;2023-02-12T04:35:56;101677.69;;;9.44;100.00
49377;BME280;35253;34.688;33.040;2023-02-12T04:38:30;101675.41;;;9.57;100.00
49377;BME280;35253;34.688;33.040;2023-02-12T04:40:57;101680.34;;;9.44;100.00
49377;BME280;35253;34.688;33.040;2023-02-12T04:43:30;101689.84;;;9.52;100.00
49377;BME280;35253;34.688;33.040;2023-02-12T04:45:55;101695.06;;;9.55;100.00
49377;BME280;35253;34.688;33.040;2023-02-12T04:48:21;101691.66;;;9.51;100.00
49377;BME280;35253;34.688;33.040;2023-02-12T04:50:46;101703.25;;;9.48;100.00
49377;BME280;35253;34.688;33.040;2023-02-12T04:53:12;101702.50;;;9.45;100.00
49377;BME280;35253;34.688;33.040;2023-02-12T04:55:38;101708.13;;;9.37;100.00
49377;BME280;35253;34.688;33.040;2023-02-12T04:58:04;101707.13;;;9.40;100.00
49377;BME280;35253;34.688;33.040;2023-02-12T05:00:29;101708.59;;;9.48;100.00
49377;BME280;35253;34.688;33.040;2023-02-12T05:02:55;101707.66;;;9.49;100.00
49377;BME280;35253;34.688;33.040;2023-02-12T05:05:20;101700.50;;;9.52;100.00
49377;BME280;35253;34.688;33.040;2023-02-12T05:07:46;101709.53;;;9.47;100.00
49377;BME280;35253;34.688;33.040;2023-02-12T05:10:12;101705.66;;;9.56;100.00
49377;BME280;35253;34.688;33.040;2023-02-12T05:12:38;101713.81;;;9.52;100.00
49377;BME280;35253;34.688;33.040;2023-02-12T05:15:03;101711.72;;;9.60;100.00
49377;BME280;35253;34.688;33.040;2023-02-12T05:17:29;101722.25;;;9.39;100.00
49377;BME280;35253;34.688;33.040;2023-02-12T05:19:54;101719.91;;;9.30;100.00
49377;BME280;35253;34.688;33.040;2023-02-12T05:22:20;101723.97;;;9.17;100.00
49377;BME280;35253;34.688;33.040;2023-02-12T05:24:45;101721.66;;;9.31;100.00
49377;BME280;35253;34.688;33.040;2023-02-12T05:27:11;101731.63;;;9.49;100.00
49377;BME280;35253;34.688;33.040;2023-02-12T05:29:36;101729.53;;;9.58;100.00
49377;BME280;35253;34.688;33.040;2023-02-12T05:32:02;101738.16;;;9.64;100.00
49377;BME280;35253;34.688;33.040;2023-02-12T05:34:28;101738.59;;;9.75;100.00
49377;BME280;35253;34.688;33.040;2023-02-12T05:36:53;101735.53;;;9.86;100.00
49377;BME280;35253;34.688;33.040;2023-02-12T05:39:19;101742.47;;;9.90;100.00
49377;BME280;35253;34.688;33.040;2023-02-12T05:41:44;101740.59;;;9.92;100.00
49377;BME280;35253;34.688;33.040;2023-02-12T05:44:10;101746.34;;;10.05;100.00
49377;BME280;35253;34.688;33.040;2023-02-12T05:46:36;101752.47;;;10.07;100.00
49377;BME280;35253;34.688;33.040;2023-02-12T05:49:02;101755.66;;;10.16;100.00
49377;BME280;35253;34.688;33.040;2023-02-12T05:51:27;101755.03;;;10.31;100.00
49377;BME280;35253;34.688;33.040;2023-02-12T05:54:00;101752.94;;;10.18;100.00
49377;BME280;35253;34.688;33.040;2023-02-12T05:56:31;101753.41;;;10.27;100.00
49377;BME280;35253;34.688;33.040;2023-02-12T05:58:58;101749.59;;;10.34;100.00
49377;BME280;35253;34.688;33.040;2023-02-12T06:01:28;101758.28;;;10.39;100.00
49377;BME280;35253;34.688;33.040;2023-02-12T06:03:53;101758.50;;;10.33;100.00
49377;BME280;35253;34.688;33.040;2023-02-12T06:06:19;101747.22;;;10.49;100.00
49377;BME280;35253;34.688;33.040;2023-02-12T06:08:48;101748.38;;;10.63;100.00
49377;BME280;35253;34.688;33.040;2023-02-12T06:11:14;101756.72;;;10.76;100.00
49377;BME280;35253;34.688;33.040;2023-02-12T06:13:39;101747.53;;;10.83;100.00
49377;BME280;35253;34.688;33.040;2023-02-12T06:16:05;101757.91;;;10.89;100.00
49377;BME280;35253;34.688;33.040;2023-02-12T06:18:33;101759.66;;;11.10;100.00
49377;BME280;35253;34.688;33.040;2023-02-12T06:20:59;101764.19;;;11.08;100.00
49377;BME280;35253;34.688;33.040;2023-02-12T06:23:24;101762.47;;;11.07;100.00
49377;BME280;35253;34.688;33.040;2023-02-12T06:25:50;101763.41;;;11.26;100.00
49377;BME280;35253;34.688;33.040;2023-02-12T06:28:16;101759.56;;;11.32;100.00
49377;BME280;35253;34.688;33.040;2023-02-12T06:30:41;101765.88;;;11.50;100.00
49377;BME280;35253;34.688;33.040;2023-02-12T06:33:07;101763.00;;;11.54;100.00
49377;BME280;35253;34.688;33.040;2023-02-12T06:35:35;101765.34;;;11.62;100.00
49377;BME280;35253;34.688;33.040;2023-02-12T06:38:01;101768.66;;;11.67;100.00
49377;BME280;35253;34.688;33.040;2023-02-12T06:40:26;101768.66;;;11.67;100.00
49377;BME280;35253;34.688;33.040;2023-02-12T06:42:52;101769.88;;;11.80;100.00
49377;BME280;35253;34.688;33.040;2023-02-12T06:45:17;101766.88;;;11.86;100.00
49377;BME280;35253;34.688;33.040;2023-02-12T06:47:43;101767.69;;;11.88;100.00
49377;BME280;35253;34.688;33.040;2023-02-12T06:50:09;101779.66;;;11.98;100.00
49377;BME280;35253;34.688;33.040;2023-02-12T06:52:34;101770.81;;;11.98;100.00
49377;BME280;35253;34.688;33.040;2023-02-12T06:55:00;101761.38;;;12.08;100.00
49377;BME280;35253;34.688;33.040;2023-02-12T06:57:25;101769.13;;;12.14;100.00
49377;BME280;35253;34.688;33.040;2023-02-12T06:59:50;101771.69;;;12.15;100.00
49377;BME280;35253;34.688;33.040;2023-02-12T07:02:16;101778.50;;;12.23;100.00
49377;BME280;35253;34.688;33.040;2023-02-12T07:04:41;101775.75;;;12.24;100.00
49377;BME280;35253;34.688;33.040;2023-02-12T07:07:07;101771.47;;;12.20;100.00
49377;BME280;35253;34.688;33.040;2023-02-12T07:09:33;101770.97;;;12.31;100.00
49377;BME280;35253;34.688;33.040;2023-02-12T07:11:58;101776.75;;;12.22;100.00
49377;BME280;35253;34.688;33.040;2023-02-12T07:14:24;101777.91;;;12.35;100.00
49377;BME280;35253;34.688;33.040;2023-02-12T07:16:50;101778.78;;;12.35;100.00
49377;BME280;35253;34.688;33.040;2023-02-12T07:19:16;101777.44;;;12.44;100.00
49377;BME280;35253;34.688;33.040;2023-02-12T07:21:42;101786.13;;;12.49;100.00
49377;BME280;35253;34.688;33.040;2023-02-12T07:24:09;101782.50;;;12.50;100.00
49377;BME280;35253;34.688;33.040;2023-02-12T07:26:36;101780.94;;;12.46;100.00
49377;BME280;35253;34.688;33.040;2023-02-12T07:29:01;101775.41;;;12.49;100.00
49377;BME280;35253;34.688;33.040;2023-02-12T07:31:27;101785.97;;;12.52;100.00
49377;BME280;35253;34.688;33.040;2023-02-12T07:33:53;101783.47;;;12.66;100.00
49377;BME280;35253;34.688;33.040;2023-02-12T07:36:19;101790.69;;;12.64;100.00
49377;BME280;35253;34.688;33.040;2023-02-12T07:38:45;101788.66;;;12.69;100.00
49377;BME280;35253;34.688;33.040;2023-02-12T07:41:14;101785.28;;;12.65;100.00
49377;BME280;35253;34.688;33.040;2023-02-12T07:43:41;101785.84;;;12.72;100.00
49377;BME280;35253;34.688;33.040;2023-02-12T07:46:11;101777.31;;;12.81;100.00
49377;BME280;35253;34.688;33.040;2023-02-12T07:48:37;101778.47;;;12.94;100.00
49377;BME280;35253;34.688;33.040;2023-02-12T07:51:03;101785.22;;;13.01;100.00
49377;BME280;35253;34.688;33.040;2023-02-12T07:53:29;101778.28;;;12.97;100.00
49377;BME280;35253;34.688;33.040;2023-02-12T07:55:55;101779.69;;;13.04;100.00
49377;BME280;35253;34.688;33.040;2023-02-12T07:58:28;101775.91;;;13.08;100.00
49377;BME280;35253;34.688;33.040;2023-02-12T08:00:53;101767.78;;;13.12;100.00
49377;BME280;35253;34.688;33.040;2023-02-12T08:03:19;101769.63;;;13.27;100.00
49377;BME280;35253;34.688;33.040;2023-02-12T08:05:44;101771.06;;;13.34;100.00
49377;BME280;35253;34.688;33.040;2023-02-12T08:08:09;101771.38;;;13.28;100.00
49377;BME280;35253;34.688;33.040;2023-02-12T08:10:35;101768.63;;;13.29;100.00
49377;BME280;35253;34.688;33.040;2023-02-12T08:13:00;101771.53;;;13.25;100.00
49377;BME280;35253;34.688;33.040;2023-02-12T08:15:26;101764.28;;;13.27;100.00
49377;BME280;35253;34.688;33.040;2023-02-12T08:17:51;101766.16;;;13.42;100.00
49377;BME280;35253;34.688;33.040;2023-02-12T08:20:17;101756.53;;;13.38;100.00
49377;BME280;35253;34.688;33.040;2023-02-12T08:22:42;101755.50;;;13.40;100.00
49377;BME280;35253;34.688;33.040;2023-02-12T08:25:08;101768.19;;;13.37;100.00
49377;BME280;35253;34.688;33.040;2023-02-12T08:27:33;101763.50;;;13.25;100.00
49377;BME280;35253;34.688;33.040;2023-02-12T08:29:59;101766.00;;;13.28;100.00
49377;BME280;35253;34.688;33.040;2023-02-12T08:32:24;101758.78;;;13.13;100.00
49377;BME280;35253;34.688;33.040;2023-02-12T08:34:50;101768.38;;;13.34;100.00
49377;BME280;35253;34.688;33.040;2023-02-12T08:37:15;101754.13;;;13.49;100.00
49377;BME280;35253;34.688;33.040;2023-02-12T08:39:41;101762.09;;;13.50;100.00
49377;BME280;35253;34.688;33.040;2023-02-12T08:42:06;101755.78;;;13.51;100.00
49377;BME280;35253;34.688;33.040;2023-02-12T08:44:32;101758.31;;;13.54;100.00
49377;BME280;35253;34.688;33.040;2023-02-12T08:46:57;101761.38;;;13.64;100.00
49377;BME280;35253;34.688;33.040;2023-02-12T08:49:23;101752.97;;;13.70;100.00
49377;BME280;35253;34.688;33.040;2023-02-12T08:51:50;101753.25;;;13.81;100.00
49377;BME280;35253;34.688;33.040;2023-02-12T08:54:17;101757.66;;;13.82;97.66
49377;BME280;35253;34.688;33.040;2023-02-12T08:56:43;101757.66;;;13.98;97.37
49377;BME280;35253;34.688;33.040;2023-02-12T08:59:12;101749.88;;;13.93;98.93
49377;BME280;35253;34.688;33.040;2023-02-12T09:01:39;101752.31;;;13.98;98.67
49377;BME280;35253;34.688;33.040;2023-02-12T09:04:06;101742.28;;;14.02;98.12
49377;BME280;35253;34.688;33.040;2023-02-12T09:06:33;101747.22;;;13.93;92.55
49377;BME280;35253;34.688;33.040;2023-02-12T09:08:59;101743.84;;;13.90;92.51
49377;BME280;35253;34.688;33.040;2023-02-12T09:11:26;101744.72;;;13.90;89.87
49377;BME280;35253;34.688;33.040;2023-02-12T09:13:55;101740.53;;;14.00;89.36
49377;BME280;35253;34.688;33.040;2023-02-12T09:16:22;101740.19;;;14.07;84.58
49377;BME280;35253;34.688;33.040;2023-02-12T09:18:47;101738.72;;;14.17;83.25
49377;BME280;35253;34.688;33.040;2023-02-12T09:21:14;101737.19;;;14.13;85.87
49377;BME280;35253;34.688;33.040;2023-02-12T09:23:44;101732.41;;;14.02;86.65
49377;BME280;35253;34.688;33.040;2023-02-12T09:26:10;101722.63;;;14.17;84.71
49377;BME280;35253;34.688;33.040;2023-02-12T09:28:36;101721.94;;;14.13;81.42
49377;BME280;35253;34.688;33.040;2023-02-12T09:31:05;101727.03;;;14.18;77.77
49377;BME280;35253;34.688;33.040;2023-02-12T09:33:31;101717.63;;;14.11;73.77
49377;BME280;35253;34.688;33.040;2023-02-12T09:36:03;101712.47;;;14.22;70.87
49377;BME280;35253;34.688;33.040;2023-02-12T09:38:29;101708.69;;;14.26;68.92
49377;BME280;35253;34.688;33.040;2023-02-12T09:43:25;101710.41;;;14.27;77.67
49377;BME280;35253;34.688;33.040;2023-02-12T09:46:03;101699.88;;;14.24;78.50
49377;BME280;35253;34.688;33.040;2023-02-12T09:48:38;101696.56;;;14.19;85.05
49377;BME280;35253;34.688;33.040;2023-02-12T09:51:07;101695.84;;;14.31;87.61
49377;BME280;35253;34.688;33.040;2023-02-12T09:53:35;101696.56;;;14.19;83.82
49377;BME280;35253;34.688;33.040;2023-02-12T09:56:01;101696.13;;;14.42;84.69
49377;BME280;35253;34.688;33.040;2023-02-12T10:00:52;101684.47;;;14.43;82.87
49377;BME280;35253;34.688;33.040;2023-02-12T10:03:18;101693.69;;;14.53;86.00
49377;BME280;35253;34.688;33.040;2023-02-12T10:05:48;101684.72;;;14.68;87.78
49377;BME280;35253;34.688;33.040;2023-02-12T10:15:47;101687.88;;;14.61;91.99
49377;BME280;35253;34.688;33.040;2023-02-12T10:21:02;101690.31;;;14.94;89.31
49377;BME280;35253;34.688;33.040;2023-02-12T10:23:47;101684.66;;;14.98;92.07
49377;BME280;35253;34.688;33.040;2023-02-12T10:26:19;101685.38;;;15.30;94.25
49377;BME280;35253;34.688;33.040;2023-02-12T10:28:46;101679.72;;;15.34;95.88
49377;BME280;35253;34.688;33.040;2023-02-12T10:33:45;101673.47;;;15.48;88.11
49377;BME280;35253;34.688;33.040;2023-02-12T10:36:18;101675.19;;;15.35;88.57
49377;BME280;35253;34.688;33.040;2023-02-12T10:38:49;101676.44;;;15.44;89.54
49377;BME280;35253;34.688;33.040;2023-02-12T10:41:16;101675.94;;;15.23;84.98
49377;BME280;35253;34.688;33.040;2023-02-12T10:43:42;101676.53;;;15.42;85.47
49377;BME280;35253;34.688;33.040;2023-02-12T10:46:16;101672.09;;;15.27;87.78
49377;BME280;35253;34.688;33.040;2023-02-12T10:48:46;101675.41;;;15.18;88.98
49377;BME280;35253;34.688;33.040;2023-02-12T10:53:57;101670.00;;;15.32;85.33
49377;BME280;35253;34.688;33.040;2023-02-12T10:56:42;101669.06;;;15.61;82.37
49377;BME280;35253;34.688;33.040;2023-02-12T10:59:09;101666.16;;;15.36;84.06
49377;BME280;35253;34.688;33.040;2023-02-12T11:01:46;101668.66;;;15.67;81.32
49377;BME280;35253;34.688;33.040;2023-02-12T11:07:05;101670.13;;;16.39;83.93
49377;BME280;35253;34.688;33.040;2023-02-12T11:09:37;101667.28;;;16.28;80.84
49377;BME280;35253;34.688;33.040;2023-02-12T11:12:20;101666.44;;;16.28;79.69
49377;BME280;35253;34.688;33.040;2023-02-12T11:14:48;101654.22;;;16.36;80.15
49377;BME280;35253;34.688;33.040;2023-02-12T11:17:18;101654.47;;;16.19;82.76
49377;BME280;35253;34.688;33.040;2023-02-12T11:19:47;101657.63;;;15.99;83.07
49377;BME280;35253;34.688;33.040;2023-02-12T11:22:26;101656.13;;;15.81;84.28
49377;BME280;35253;34.688;33.040;2023-02-12T11:24:58;101655.44;;;16.18;82.40
49377;BME280;35253;34.688;33.040;2023-02-12T11:27:25;101654.09;;;16.11;83.88
49377;BME280;35253;34.688;33.040;2023-02-12T11:32:37;101655.78;;;16.65;80.92
49377;BME280;35253;34.688;33.040;2023-02-12T11:35:09;101648.69;;;16.77;80.48
49377;BME280;35253;34.688;33.040;2023-02-12T11:37:35;101655.16;;;16.75;80.84
49377;BME280;35253;34.688;33.040;2023-02-12T11:40:04;101662.81;;;16.41;80.62
49377;BME280;35253;34.688;33.040;2023-02-12T11:42:30;101657.78;;;16.49;81.28
49377;BME280;35253;34.688;33.040;2023-02-12T11:44:58;101662.59;;;16.84;79.28
49377;BME280;35253;34.688;33.040;2023-02-12T11:47:25;101663.66;;;16.42;79.86
49377;BME280;35253;34.688;33.040;2023-02-12T11:50:00;101664.53;;;17.07;77.80
49377;BME280;35253;34.688;33.040;2023-02-12T11:52:28;101663.09;;;17.39;77.52
49377;BME280;35253;34.688;33.040;2023-02-12T11:54:59;101655.28;;;17.73;76.41
49377;BME280;35253;34.688;33.040;2023-02-12T11:57:38;101653.34;;;16.88;76.66
49377;BME280;35253;34.688;33.040;2023-02-12T12:00:12;101655.34;;;16.59;78.25
49377;BME280;35253;34.688;33.040;2023-02-12T12:02:41;101656.44;;;16.82;78.22
49377;BME280;35253;34.688;33.040;2023-02-12T12:05:13;101654.75;;;17.06;77.46
49377;BME280;35253;34.688;33.040;2023-02-12T12:07:41;101667.34;;;17.05;74.88
49377;BME280;35253;34.688;33.040;2023-02-12T12:21:00;101662.44;;;16.60;69.05
49377;BME280;35253;34.688;33.040;2023-02-12T12:23:31;101664.66;;;17.05;67.55
49377;BME280;35253;34.688;33.040;2023-02-12T12:26:03;101657.47;;;16.54;68.79
49377;BME280;35253;34.688;33.040;2023-02-12T12:28:32;101657.94;;;16.73;70.05
49377;BME280;35253;34.688;33.040;2023-02-12T12:33:28;101662.91;;;16.66;67.43
49377;BME280;35253;34.688;33.040;2023-02-12T12:41:16;101659.25;;;17.18;63.52
49377;BME280;35253;34.688;33.040;2023-02-12T12:44:02;101663.69;;;17.19;60.05
49377;BME280;35253;34.688;33.040;2023-02-12T12:57:19;101682.31;;;16.72;66.37
49377;BME280;35253;34.688;33.040;2023-02-12T13:07:58;101682.19;;;16.46;70.48
49377;BME280;35253;34.688;33.040;2023-02-12T13:10:31;101689.00;;;16.12;72.80
49377;BME280;35253;34.688;33.040;2023-02-12T13:13:04;101690.84;;;15.98;74.60
49377;BME280;35253;34.688;33.040;2023-02-12T13:23:35;101691.97;;;15.67;80.26
49377;BME280;35253;34.688;33.040;2023-02-12T13:26:13;101703.19;;;15.88;79.10
49377;BME280;35253;34.688;33.040;2023-02-12T13:28:43;101682.75;;;16.12;77.41
49377;BME280;35253;34.688;33.040;2023-02-12T13:31:13;101701.78;;;16.09;80.11
49377;BME280;35253;34.688;33.040;2023-02-12T13:33:48;101695.88;;;16.16;79.25
49377;BME280;35253;34.688;33.040;2023-02-12T13:36:16;101705.19;;;15.84;79.92
49377;BME280;35253;34.688;33.040;2023-02-12T13:38:46;101698.56;;;15.90;79.70
49377;BME280;35253;34.688;33.040;2023-02-12T13:41:13;101694.84;;;16.19;81.90
49377;BME280;35253;34.688;33.040;2023-02-12T13:43:46;101699.31;;;16.06;82.03
49377;BME280;35253;34.688;33.040;2023-02-12T13:48:51;101705.69;;;16.44;79.80
49377;BME280;35253;34.688;33.040;2023-02-12T13:51:20;101705.47;;;16.47;80.70
49377;BME280;35253;34.688;33.040;2023-02-12T13:58:49;101702.94;;;16.05;86.01
49377;BME280;35253;34.688;33.040;2023-02-12T14:04:33;101701.69;;;15.69;87.14
49377;BME280;35253;34.688;33.040;2023-02-12T14:09:26;101715.63;;;15.62;85.42
49377;BME280;35253;34.688;33.040;2023-02-12T14:11:54;101717.41;;;15.19;87.41
49377;BME280;35253;34.688;33.040;2023-02-12T14:14:39;101711.75;;;15.23;86.59
49377;BME280;35253;34.688;33.040;2023-02-12T14:24:59;101723.97;;;14.85;90.71
49377;BME280;35253;34.688;33.040;2023-02-12T14:37:57;101734.03;;;15.40;92.75
49377;BME280;35253;34.688;33.040;2023-02-12T14:40:35;101730.84;;;15.05;95.27
49377;BME280;35253;34.688;33.040;2023-02-12T14:43:28;101743.41;;;14.74;96.13
49377;BME280;35253;34.688;33.040;2023-02-12T14:45:50;101735.66;;;14.70;96.10
49377;BME280;35253;34.688;33.040;2023-02-12T14:51:00;101748.75;;;14.60;96.43
49377;BME280;35253;34.688;33.040;2023-02-12T14:53:30;101736.53;;;14.55;96.14
49377;BME280;35253;34.688;33.040;2023-02-12T14:55:57;101746.22;;;14.57;96.46
49377;BME280;35253;34.688;33.040;2023-02-12T14:58:24;101744.66;;;14.53;96.40
49377;BME280;35253;34.688;33.040;2023-02-12T15:00:52;101753.69;;;14.52;97.54
49377;BME280;35253;34.688;33.040;2023-02-12T15:03:22;101760.25;;;14.31;99.62
49377;BME280;35253;34.688;33.040;2023-02-12T15:08:48;101765.47;;;14.34;100.00